Time;durP1;ratioP1;P1;durP2;ratioP2;P2;SDS_P1;SDS_P2;PMS_P1;PMS_P2;Temp;Humidity;BMP_temperature;BMP_pressure;BME280_temperature;BME280_humidity;BME280_pressure;Samples;Min_cycle;Max_cycle;Signal;HPM_P1;HPM_P2
2022/01/10 00:00:01;;;;;;;0.60;0.60;;;;;;;0.76;92.74;96229.38;29374;196;63008;-59
2022/01/10 00:00:32;;;;;;;0.60;0.60;;;;;;;0.76;92.59;96235.53;29375;326;63004;-59
2022/01/10 00:01:07;;;;;;;0.77;0.77;;;;;;;0.77;92.48;96231.00;29375;231;63009;-58
2022/01/10 00:01:39;;;;;;;1.12;1.12;;;;;;;0.76;92.83;96242.75;29374;336;63005;-59
2022/01/10 00:02:11;;;;;;;0.60;0.60;;;;;;;0.76;92.55;96232.06;29373;313;64009;-60
2022/01/10 00:02:45;;;;;;;0.60;0.60;;;;;;;0.77;92.80;96239.00;29375;202;63005;-59
2022/01/10 00:03:17;;;;;;;0.50;0.50;;;;;;;0.77;92.54;96237.16;29373;307;64009;-58
2022/01/10 00:03:48;;;;;;;0.50;0.50;;;;;;;0.77;92.71;96241.69;29375;224;63005;-59
2022/01/10 00:04:19;;;;;;;0.60;0.60;;;;;;;0.76;92.57;96232.06;29375;254;63009;-54
2022/01/10 00:04:50;;;;;;;0.50;0.50;;;;;;;0.75;92.87;96233.91;29375;210;63004;-58
2022/01/10 00:05:22;;;;;;;0.52;0.52;;;;;;;0.75;92.63;96241.13;29375;249;63009;-58
2022/01/10 00:05:53;;;;;;;0.70;0.70;;;;;;;0.76;92.64;96240.88;29375;313;63004;-58
2022/01/10 00:06:24;;;;;;;0.60;0.60;;;;;;;0.77;92.61;96242.50;29375;248;63013;-58
2022/01/10 00:06:56;;;;;;;0.60;0.60;;;;;;;0.78;92.89;96243.31;29375;282;63004;-58
2022/01/10 00:07:27;;;;;;;0.70;0.70;;;;;;;0.79;92.62;96240.38;29375;328;63008;-58
2022/01/10 00:07:58;;;;;;;0.50;0.50;;;;;;;0.80;92.44;96244.66;29373;196;64004;-58
2022/01/10 00:08:31;;;;;;;0.60;0.60;;;;;;;0.80;92.43;96242.00;29375;337;63021;-59
2022/01/10 00:09:03;;;;;;;0.60;0.60;;;;;;;0.83;92.37;96251.37;29373;255;64005;-58
2022/01/10 00:09:34;;;;;;;0.50;0.50;;;;;;;0.81;92.55;96248.97;29376;219;63009;-59
2022/01/10 00:10:07;;;;;;;0.60;0.60;;;;;;;0.83;92.30;96254.06;29374;318;64005;-59
2022/01/10 00:10:38;;;;;;;0.60;0.60;;;;;;;0.83;92.38;96251.37;29376;218;63018;-58
2022/01/10 00:11:09;;;;;;;0.55;0.55;;;;;;;0.83;92.40;96246.84;29376;220;63005;-58
2022/01/10 00:11:40;;;;;;;0.60;0.60;;;;;;;0.82;92.44;96242.56;29376;344;63009;-59
2022/01/10 00:12:12;;;;;;;0.60;0.60;;;;;;;0.84;92.83;96255.69;29376;303;63004;-59
2022/01/10 00:12:43;;;;;;;0.60;0.60;;;;;;;0.83;92.68;96251.37;29376;355;63009;-59
2022/01/10 00:13:14;;;;;;;0.50;0.50;;;;;;;0.83;92.81;96246.03;29376;367;63016;-58
2022/01/10 00:13:46;;;;;;;0.60;0.60;;;;;;;0.84;92.87;96253.00;29374;322;64009;-59
2022/01/10 00:14:17;;;;;;;0.50;0.50;;;;;;;0.82;92.65;96253.25;29374;336;64004;-58
2022/01/10 00:14:48;;;;;;;0.50;0.50;;;;;;;0.82;92.72;96255.09;29376;374;63008;-58
2022/01/10 00:15:19;;;;;;;0.50;0.50;;;;;;;0.83;92.74;96251.37;29376;277;63009;-58
2022/01/10 00:15:50;;;;;;;0.50;0.50;;;;;;;0.82;93.10;96252.44;29376;362;63009;-58
2022/01/10 00:16:21;;;;;;;0.50;0.50;;;;;;;0.83;93.09;96251.37;29376;218;63005;-60
2022/01/10 00:16:52;;;;;;;0.52;0.52;;;;;;;0.82;93.25;96255.09;29374;236;64009;-59
2022/01/10 00:17:24;;;;;;;0.60;0.60;;;;;;;0.82;93.18;96255.91;29376;246;63004;-59
2022/01/10 00:17:55;;;;;;;0.60;0.60;;;;;;;0.81;92.93;96256.16;29376;352;63009;-60
2022/01/10 00:18:26;;;;;;;0.77;0.77;;;;;;;0.78;93.20;96252.13;29376;366;63005;-59
2022/01/10 00:18:57;;;;;;;0.50;0.50;;;;;;;0.77;93.18;96257.72;29375;213;63009;-58
2022/01/10 00:19:28;;;;;;;0.50;0.50;;;;;;;0.74;93.17;96258.19;29376;292;63004;-59
2022/01/10 00:20:00;;;;;;;0.50;0.50;;;;;;;0.75;93.40;96251.81;29375;345;63009;-60
2022/01/10 00:20:31;;;;;;;0.60;0.60;;;;;;;0.74;93.52;96258.19;29376;218;63004;-60
2022/01/10 00:21:03;;;;;;;0.55;0.55;;;;;;;0.75;93.48;96254.47;29375;315;63004;-59
2022/01/10 00:21:36;;;;;;;0.55;0.55;;;;;;;0.75;93.56;96255.28;29376;199;63004;-59
2022/01/10 00:22:08;;;;;;;0.50;0.50;;;;;;;0.74;93.33;96258.19;29373;217;64008;-59
2022/01/10 00:22:45;;;;;;;0.60;0.60;;;;;;;0.74;93.57;96258.19;29376;199;63005;-60
2022/01/10 00:23:16;;;;;;;0.50;0.50;;;;;;;0.73;93.69;96256.56;29375;320;63008;-59
2022/01/10 00:23:48;;;;;;;0.50;0.50;;;;;;;0.73;93.67;96251.25;29375;241;63005;-59
2022/01/10 00:24:19;;;;;;;3.35;3.25;;;;;;;0.74;93.41;96258.19;29373;210;64009;-58
2022/01/10 00:24:50;;;;;;;0.60;0.60;;;;;;;0.75;93.67;96255.28;29376;318;63010;-59
2022/01/10 00:25:23;;;;;;;0.60;0.60;;;;;;;0.77;93.56;96257.72;29375;235;63009;-59
2022/01/10 00:25:54;;;;;;;0.60;0.60;;;;;;;0.78;93.19;96260.13;29373;199;64005;-58
2022/01/10 00:26:26;;;;;;;0.50;0.50;;;;;;;0.79;93.23;96255.59;29375;300;63009;-60
2022/01/10 00:26:57;;;;;;;0.50;0.50;;;;;;;0.77;93.10;96263.06;29375;272;63004;-59
2022/01/10 00:27:28;;;;;;;0.50;0.50;;;;;;;0.75;93.01;96249.13;29375;202;63019;-59
2022/01/10 00:27:59;;;;;;;0.50;0.50;;;;;;;0.76;93.27;96261.44;29375;218;63004;-59
2022/01/10 00:28:31;;;;;;;1.87;1.87;;;;;;;0.74;92.96;96258.19;29375;270;63009;-60
2022/01/10 00:29:03;;;;;;;0.60;0.60;;;;;;;0.73;92.94;96256.56;29373;356;64004;-60
2022/01/10 00:29:34;;;;;;;0.55;0.55;;;;;;;0.72;93.08;96260.31;29375;356;63008;-58
2022/01/10 00:30:06;;;;;;;1.00;1.00;;;;;;;0.71;93.54;96264.03;29375;284;63005;-60
2022/01/10 00:30:37;;;;;;;0.50;0.50;;;;;;;0.72;93.21;96260.31;29375;328;63019;-59
2022/01/10 00:31:09;;;;;;;0.50;0.50;;;;;;;0.70;93.53;96259.75;29375;321;63005;-60
2022/01/10 00:31:40;;;;;;;0.50;0.50;;;;;;;0.71;93.29;96258.69;29375;217;63009;-59
2022/01/10 00:32:11;;;;;;;0.50;0.50;;;;;;;0.72;93.54;96257.63;29375;238;63005;-60
2022/01/10 00:32:44;;;;;;;0.60;0.60;;;;;;;0.72;93.66;96265.63;29375;302;63009;-60
2022/01/10 00:33:15;;;;;;;0.50;0.50;;;;;;;0.71;93.89;96266.69;29375;302;63010;-60
2022/01/10 00:33:46;;;;;;;0.50;0.50;;;;;;;0.71;93.50;96258.69;29375;217;63009;-60
2022/01/10 00:34:18;;;;;;;2.30;2.25;;;;;;;0.70;93.54;96265.06;29395;268;64004;-59
2022/01/10 00:34:50;;;;;;;0.60;0.60;;;;;;;0.70;93.69;96262.41;29396;250;63009;-59
2022/01/10 00:35:24;;;;;;;0.60;0.60;;;;;;;0.70;93.60;96267.75;29375;199;63004;-60
2022/01/10 00:35:55;;;;;;;0.60;0.60;;;;;;;0.68;93.79;96261.88;29373;198;64009;-60
2022/01/10 00:36:26;;;;;;;0.60;0.60;;;;;;;0.68;93.83;96261.88;29375;351;63004;-59
2022/01/10 00:36:58;;;;;;;0.60;0.60;;;;;;;0.69;93.58;96264.31;29375;198;63015;-60
2022/01/10 00:37:29;;;;;;;0.50;0.50;;;;;;;0.69;93.92;96263.50;29375;291;63004;-60
2022/01/10 00:38:00;;;;;;;0.60;0.60;;;;;;;0.68;93.74;96264.53;29375;264;63009;-60
2022/01/10 00:38:31;;;;;;;0.60;0.60;;;;;;;0.67;94.07;96266.41;29375;301;63005;-60
2022/01/10 00:39:04;;;;;;;0.60;0.60;;;;;;;0.66;94.16;96268.25;29373;215;64020;-59
2022/01/10 00:39:36;;;;;;;0.57;0.57;;;;;;;0.64;93.75;96273.03;29375;202;63005;-60
2022/01/10 00:40:08;;;;;;;0.60;0.60;;;;;;;0.62;94.02;96266.31;29375;300;63009;-60
2022/01/10 00:40:42;;;;;;;0.50;0.50;;;;;;;0.62;93.96;96267.13;29375;205;63005;-60
2022/01/10 00:41:14;;;;;;;0.60;0.60;;;;;;;0.64;93.76;96272.22;29375;209;63009;-59
2022/01/10 00:41:45;;;;;;;0.60;0.60;;;;;;;0.64;94.13;96261.56;29376;262;63004;-60
2022/01/10 00:42:20;;;;;;;0.60;0.60;;;;;;;0.64;94.06;96270.38;29375;308;63009;-61
2022/01/10 00:42:56;;;;;;;0.60;0.60;;;;;;;0.63;93.92;96259.94;29375;228;63004;-59
2022/01/10 00:43:33;;;;;;;0.60;0.60;;;;;;;0.62;93.89;96266.31;29375;204;63009;-60
2022/01/10 00:44:04;;;;;;;0.60;0.60;;;;;;;0.60;93.93;96271.91;29373;202;64004;-58
2022/01/10 00:44:40;;;;;;;0.60;0.60;;;;;;;0.61;93.97;96270.06;29375;272;63008;-59
2022/01/10 00:45:17;;;;;;;0.60;0.60;;;;;;;0.60;94.12;96274.56;29375;213;63013;-59
2022/01/10 00:45:49;;;;;;;0.50;0.50;;;;;;;0.58;93.98;96271.34;29375;255;63020;-59
2022/01/10 00:46:20;;;;;;;0.60;0.60;;;;;;;0.58;94.34;96275.88;29375;301;63005;-60
2022/01/10 00:46:52;;;;;;;0.60;0.60;;;;;;;0.58;94.26;96275.88;29375;226;63009;-59
2022/01/10 00:47:23;;;;;;;0.60;0.60;;;;;;;0.58;94.04;96276.69;29375;279;63005;-61
2022/01/10 00:47:59;;;;;;;0.60;0.60;;;;;;;0.58;94.07;96266.00;29375;242;63009;-59
2022/01/10 00:48:31;;;;;;;0.50;0.50;;;;;;;0.58;94.03;96275.88;29375;206;63005;-59
2022/01/10 00:49:03;;;;;;;0.60;0.60;;;;;;;0.57;94.23;96277.75;29375;221;63009;-59
2022/01/10 00:49:34;;;;;;;0.60;0.60;;;;;;;0.56;94.30;96278.78;29373;319;64004;-59
2022/01/10 00:50:06;;;;;;;0.60;0.60;;;;;;;0.54;94.03;96272.88;29375;196;63009;-60
2022/01/10 00:50:37;;;;;;;0.60;0.60;;;;;;;0.54;94.10;96280.91;29375;304;63004;-60
2022/01/10 00:51:09;;;;;;;0.68;0.68;;;;;;;0.52;94.28;96277.66;29375;225;63009;-59
2022/01/10 00:51:40;;;;;;;0.60;0.60;;;;;;;0.50;94.18;96274.41;29373;197;64004;-59
2022/01/10 00:52:12;;;;;;;0.60;0.60;;;;;;;0.48;93.88;96281.87;29375;207;63008;-60
2022/01/10 00:52:44;;;;;;;0.60;0.60;;;;;;;0.47;94.00;96282.91;29375;302;63005;-60
2022/01/10 00:53:15;;;;;;;0.60;0.60;;;;;;;0.46;94.43;96273.28;29375;245;63009;-59
2022/01/10 00:53:52;;;;;;;0.60;0.60;;;;;;;0.46;94.68;96286.63;29375;208;63005;-59
2022/01/10 00:54:23;;;;;;;0.60;0.60;;;;;;;0.46;94.56;96289.31;29375;294;63009;-59
2022/01/10 00:54:54;;;;;;;0.60;0.60;;;;;;;0.50;94.75;96287.75;29375;198;63005;-60
2022/01/10 00:55:26;;;;;;;8.73;8.27;;;;;;;0.51;94.44;96291.25;29374;204;64009;-59
2022/01/10 00:55:58;;;;;;;0.60;0.60;;;;;;;0.51;94.76;96281.37;29375;327;63005;-59
2022/01/10 00:56:29;;;;;;;0.60;0.60;;;;;;;0.53;94.42;96283.81;29375;216;63016;-59
2022/01/10 00:57:01;;;;;;;0.60;0.60;;;;;;;0.54;94.70;96285.41;29373;299;64004;-58
2022/01/10 00:57:32;;;;;;;0.60;0.60;;;;;;;0.52;94.50;96290.19;29375;199;63009;-59
2022/01/10 00:58:03;;;;;;;0.85;0.85;;;;;;;0.50;94.71;96279.75;29375;210;63004;-59
2022/01/10 00:58:36;;;;;;;0.60;0.60;;;;;;;0.50;94.52;96290.44;29375;215;63008;-58
2022/01/10 00:59:07;;;;;;;0.60;0.60;;;;;;;0.50;94.96;96290.44;29375;240;63004;-59
2022/01/10 00:59:38;;;;;;;0.60;0.60;;;;;;;0.52;94.62;96288.34;29375;202;63008;-60
2022/01/10 01:00:12;;;;;;;0.50;0.50;;;;;;;0.52;94.93;96283.00;29375;201;63001;-59
2022/01/10 01:00:44;;;;;;;0.60;0.60;;;;;;;0.55;94.73;96298.53;29375;256;63009;-60
2022/01/10 01:01:16;;;;;;;0.60;0.60;;;;;;;0.55;94.75;96293.19;29375;298;63005;-59
2022/01/10 01:01:47;;;;;;;0.60;0.60;;;;;;;0.57;94.69;96291.09;29375;245;63015;-60
2022/01/10 01:02:21;;;;;;;0.57;0.57;;;;;;;0.58;94.50;96290.03;29373;198;64005;-59
2022/01/10 01:02:53;;;;;;;0.98;0.98;;;;;;;0.60;94.51;96290.59;29375;216;63009;-59
2022/01/10 01:03:25;;;;;;;0.60;0.60;;;;;;;0.60;94.78;96285.25;29375;210;63005;-59
2022/01/10 01:03:56;;;;;;;0.60;0.60;;;;;;;0.60;94.65;96289.78;29375;290;63009;-60
2022/01/10 01:04:28;;;;;;;0.60;0.60;;;;;;;0.62;94.52;96296.50;29375;333;63004;-59
2022/01/10 01:05:01;;;;;;;0.60;0.60;;;;;;;0.62;94.45;96288.50;29375;211;63009;-59
2022/01/10 01:05:38;;;;;;;0.60;0.60;;;;;;;0.63;94.63;96295.44;29375;218;63004;-59
2022/01/10 01:06:11;;;;;;;0.60;0.60;;;;;;;0.65;94.32;96297.88;29375;215;63008;-59
2022/01/10 01:06:43;;;;;;;0.60;0.60;;;;;;;0.64;94.32;96291.72;29375;202;63010;-60
2022/01/10 01:07:14;;;;;;;0.60;0.60;;;;;;;0.65;94.20;96293.34;29375;339;63009;-59
2022/01/10 01:07:46;;;;;;;0.60;0.60;;;;;;;0.65;94.47;96290.69;29373;300;64005;-59
2022/01/10 01:08:17;;;;;;;0.60;0.60;;;;;;;0.66;94.40;96289.63;29375;291;63009;-60
2022/01/10 01:08:48;;;;;;;0.60;0.60;;;;;;;0.68;94.23;96296.59;29375;224;63005;-59
2022/01/10 01:09:26;;;;;;;0.60;0.60;;;;;;;0.69;94.00;96298.19;29375;238;63009;-60
2022/01/10 01:11:31;;;;;;;0.60;0.60;;;;;;;0.71;94.04;96298.75;29375;215;63009;-59
2022/01/10 01:13:57;;;;;;;0.60;0.60;;;;;;;0.71;93.57;96302.22;29373;262;64004;-60
2022/01/10 01:15:45;;;;;;;0.60;0.60;;;;;;;0.73;93.63;96308.12;29373;225;63005;-59
2022/01/10 01:16:30;;;;;;;0.60;0.60;;;;;;;0.73;93.40;96312.66;29374;206;63020;-59
2022/01/10 01:17:26;;;;;;;0.60;0.60;;;;;;;0.70;93.49;96316.62;29373;254;63005;-59
2022/01/10 01:18:10;;;;;;;0.60;0.60;;;;;;;0.65;93.14;96313.91;29374;222;63009;-56
2022/01/10 01:24:26;;;;;;;0.60;0.60;;;;;;;0.59;93.37;96326.34;29373;198;63005;-59
2022/01/10 01:24:57;;;;;;;0.60;0.60;;;;;;;0.58;92.86;96324.75;29373;218;63009;-59
2022/01/10 01:25:28;;;;;;;0.60;0.60;;;;;;;0.58;93.19;96327.41;29373;227;63005;-59
2022/01/10 01:26:04;;;;;;;0.60;0.60;;;;;;;0.58;93.00;96332.75;29373;214;63016;-59
2022/01/10 01:26:42;;;;;;;0.60;0.60;;;;;;;0.57;93.28;96333.78;29373;202;63004;-60
2022/01/10 01:27:14;;;;;;;0.60;0.60;;;;;;;0.56;92.88;96337.53;29371;212;64009;-60
2022/01/10 01:27:52;;;;;;;0.60;0.60;;;;;;;0.55;93.19;96335.91;29373;245;63004;-59
2022/01/10 01:28:25;;;;;;;0.60;0.60;;;;;;;0.53;92.96;96334.53;29373;217;63019;-60
2022/01/10 01:28:56;;;;;;;0.60;0.60;;;;;;;0.50;93.38;96333.16;29373;222;63004;-59
2022/01/10 01:29:30;;;;;;;0.60;0.60;;;;;;;0.49;93.38;96339.53;29373;219;63008;-60
2022/01/10 01:30:01;;;;;;;0.60;0.60;;;;;;;0.49;93.71;96336.06;29373;244;63005;-59
2022/01/10 01:30:32;;;;;;;0.60;0.60;;;;;;;0.48;93.48;96335.25;29373;199;63009;-60
2022/01/10 01:31:03;;;;;;;0.60;0.60;;;;;;;0.49;93.92;96331.53;29373;220;63005;-60
2022/01/10 01:31:35;;;;;;;0.60;0.60;;;;;;;0.50;94.01;96346.50;29372;295;63009;-59
2022/01/10 01:32:07;;;;;;;0.60;0.60;;;;;;;0.49;94.00;96339.53;29373;274;63005;-60
2022/01/10 01:32:39;;;;;;;0.60;0.60;;;;;;;0.50;93.93;96338.47;29371;196;64009;-59
2022/01/10 01:33:13;;;;;;;0.60;0.60;;;;;;;0.51;94.03;96333.94;29373;202;63005;-60
2022/01/10 01:33:45;;;;;;;0.60;0.60;;;;;;;0.51;93.82;96341.97;29373;305;63009;-59
2022/01/10 01:34:18;;;;;;;0.60;0.60;;;;;;;0.50;94.09;96338.47;29373;205;63004;-60
2022/01/10 01:34:50;;;;;;;0.60;0.60;;;;;;;0.51;93.89;96340.09;29373;260;63009;-60
2022/01/10 01:35:24;;;;;;;0.60;0.60;;;;;;;0.52;93.98;96336.38;29371;210;64004;-59
2022/01/10 01:35:56;;;;;;;0.57;0.57;;;;;;;0.52;94.01;96336.38;29373;240;63009;-58
2022/01/10 01:36:29;;;;;;;0.60;0.60;;;;;;;0.53;94.29;96338.00;29373;246;63007;-60
2022/01/10 01:37:01;;;;;;;0.60;0.60;;;;;;;0.52;94.06;96344.38;29372;274;64008;-59
2022/01/10 01:37:32;;;;;;;5.03;4.65;;;;;;;0.51;94.30;96344.63;29373;197;63005;-60
2022/01/10 01:38:07;;;;;;;0.60;0.60;;;;;;;0.48;94.42;96345.13;29373;264;63009;-59
2022/01/10 01:38:39;;;;;;;0.60;0.60;;;;;;;0.48;94.43;96351.25;29373;301;63005;-60
2022/01/10 01:39:21;;;;;;;0.70;0.70;;;;;;;0.49;94.28;96341.41;29373;211;63009;-60
2022/01/10 01:39:52;;;;;;;0.60;0.60;;;;;;;0.48;94.39;96345.94;29373;222;63005;-60
2022/01/10 01:40:27;;;;;;;0.60;0.60;;;;;;;0.47;94.20;96344.31;29371;316;64009;-59
2022/01/10 01:41:12;;;;;;;0.60;0.60;;;;;;;0.47;94.39;96354.97;29373;202;63005;-59
2022/01/10 01:41:45;;;;;;;0.60;0.60;;;;;;;0.46;94.14;96350.69;29373;218;63009;-59
2022/01/10 01:43:10;;;;;;;0.60;0.60;;;;;;;0.48;94.39;96345.13;29371;262;64009;-59
2022/01/10 01:43:41;;;;;;;0.60;0.60;;;;;;;0.49;94.53;96358.22;29373;242;63004;-60
2022/01/10 01:44:12;;;;;;;0.60;0.60;;;;;;;0.48;94.06;96361.94;29373;240;63018;-60
2022/01/10 01:44:47;;;;;;;0.55;0.55;;;;;;;0.48;94.36;96350.44;29373;245;63005;-59
2022/01/10 01:45:19;;;;;;;0.60;0.60;;;;;;;0.48;94.25;96355.78;29373;207;63009;-60
2022/01/10 01:45:50;;;;;;;0.60;0.60;;;;;;;0.47;94.30;96360.31;29373;328;63005;-60
2022/01/10 01:46:23;;;;;;;0.60;0.60;;;;;;;0.46;93.94;96358.69;29373;205;63009;-58
2022/01/10 01:46:54;;;;;;;0.60;0.60;;;;;;;0.47;94.25;96359.50;29373;222;63005;-56
2022/01/10 01:47:26;;;;;;;0.60;0.60;;;;;;;0.46;93.99;96358.69;29371;227;64009;-59
2022/01/10 01:47:57;;;;;;;0.60;0.60;;;;;;;0.44;94.00;96352.78;29373;277;63005;-60
2022/01/10 01:48:28;;;;;;;0.60;0.60;;;;;;;0.42;94.02;96352.22;29373;202;63009;-60
2022/01/10 01:48:59;;;;;;;0.50;0.50;;;;;;;0.42;94.19;96357.56;29371;244;64004;-59
2022/01/10 01:49:30;;;;;;;0.60;0.60;;;;;;;0.41;94.27;96355.94;29373;254;63009;-60
2022/01/10 01:50:04;;;;;;;0.52;0.52;;;;;;;0.42;94.26;96362.09;29373;198;63004;-59
2022/01/10 01:50:36;;;;;;;0.60;0.60;;;;;;;0.41;94.12;96358.63;29373;269;63009;-59
2022/01/10 01:51:11;;;;;;;0.60;0.60;;;;;;;0.40;94.21;96358.84;29373;322;63004;-60
2022/01/10 01:51:42;;;;;;;0.60;0.60;;;;;;;0.38;93.97;96361.75;29373;212;63008;-60
2022/01/10 01:52:14;;;;;;;0.60;0.60;;;;;;;0.38;94.33;96353.75;29373;255;63005;-60
2022/01/10 01:52:45;;;;;;;0.60;0.60;;;;;;;0.38;94.39;96361.75;29373;266;63009;-60
2022/01/10 01:53:16;;;;;;;0.60;0.60;;;;;;;0.39;94.15;96363.38;29371;216;64005;-59
2022/01/10 01:53:49;;;;;;;0.60;0.60;;;;;;;0.39;94.57;96357.22;29371;209;64009;-59
2022/01/10 01:54:20;;;;;;;0.60;0.60;;;;;;;0.40;94.60;96364.19;29373;227;63005;-59
2022/01/10 01:54:52;;;;;;;0.60;0.60;;;;;;;0.39;94.37;96368.72;29373;228;63009;-60
2022/01/10 01:55:23;;;;;;;0.60;0.60;;;;;;;0.40;94.72;96362.31;29373;227;63005;-59
2022/01/10 01:55:54;;;;;;;0.60;0.60;;;;;;;0.41;94.57;96365.81;29373;228;63009;-59
2022/01/10 01:56:26;;;;;;;0.60;0.60;;;;;;;0.42;94.79;96365.56;29373;220;63004;-59
2022/01/10 01:56:58;;;;;;;0.60;0.60;;;;;;;0.43;94.67;96363.72;29373;202;63009;-60
2022/01/10 01:57:30;;;;;;;0.60;0.60;;;;;;;0.45;94.62;96364.28;29373;251;63016;-59
2022/01/10 01:58:02;;;;;;;0.55;0.55;;;;;;;0.47;94.88;96373.66;29371;229;64009;-59
2022/01/10 01:58:36;;;;;;;0.60;0.60;;;;;;;0.47;94.87;96371.00;29373;215;63004;-59
2022/01/10 01:59:09;;;;;;;0.98;0.98;;;;;;;0.47;94.58;96371.00;29371;305;64008;-59
2022/01/10 01:59:40;;;;;;;0.60;0.60;;;;;;;0.46;94.66;96369.38;29373;202;63004;-59
2022/01/10 02:00:12;;;;;;;0.60;0.60;;;;;;;0.48;94.72;96371.81;29373;197;63009;-60
2022/01/10 02:00:43;;;;;;;0.60;0.60;;;;;;;0.48;94.80;96369.94;29373;222;63000;-60
2022/01/10 02:01:18;;;;;;;0.60;0.60;;;;;;;0.49;94.57;96362.75;29373;206;63009;-60
2022/01/10 02:01:50;;;;;;;0.60;0.60;;;;;;;0.49;94.87;96373.44;29373;269;63005;-59
2022/01/10 02:02:21;;;;;;;0.60;0.60;;;;;;;0.49;94.89;96370.75;29373;219;63009;-59
2022/01/10 02:02:53;;;;;;;0.60;0.60;;;;;;;0.50;94.87;96373.19;29373;196;63005;-59
2022/01/10 02:03:25;;;;;;;0.60;0.60;;;;;;;0.50;94.57;96370.50;29373;250;63009;-60
2022/01/10 02:03:56;;;;;;;0.70;0.70;;;;;;;0.51;94.58;96371.31;29373;214;63003;-60
2022/01/10 02:04:27;;;;;;;0.60;0.60;;;;;;;0.51;94.62;96371.31;29371;217;64009;-59
2022/01/10 02:04:59;;;;;;;0.62;0.62;;;;;;;0.54;94.66;96371.66;29373;196;63004;-60
2022/01/10 02:05:30;;;;;;;0.60;0.60;;;;;;;0.56;94.56;96374.91;29373;211;63009;-59
2022/01/10 02:06:01;;;;;;;0.60;0.60;;;;;;;0.57;94.65;96375.69;29373;245;63004;-60
2022/01/10 02:06:33;;;;;;;0.60;0.60;;;;;;;0.58;94.49;96369.31;29373;280;63008;-60
2022/01/10 02:07:04;;;;;;;0.60;0.60;;;;;;;0.58;94.22;96372.78;29371;328;64004;-59
2022/01/10 02:07:35;;;;;;;0.60;0.60;;;;;;;0.59;94.33;96376.28;29373;285;63009;-59
2022/01/10 02:08:09;;;;;;;0.60;0.60;;;;;;;0.60;94.46;96370.69;29373;247;63005;-60
2022/01/10 02:08:40;;;;;;;0.60;0.60;;;;;;;0.61;94.44;96371.50;29373;221;63009;-60
2022/01/10 02:09:14;;;;;;;0.60;0.60;;;;;;;0.62;94.43;96371.25;29373;295;63008;-59
2022/01/10 02:09:45;;;;;;;0.60;0.60;;;;;;;0.63;94.08;96372.87;29373;209;63009;-60
2022/01/10 02:10:17;;;;;;;0.52;0.52;;;;;;;0.63;94.34;96380.87;29373;198;63005;-60
2022/01/10 02:10:48;;;;;;;0.60;0.60;;;;;;;0.64;94.01;96376.34;29373;222;63009;-61
2022/01/10 02:11:19;;;;;;;0.60;0.60;;;;;;;0.65;94.36;96377.97;29373;204;63004;-59
2022/01/10 02:11:52;;;;;;;0.60;0.60;;;;;;;0.65;94.02;96377.97;29373;311;63009;-58
2022/01/10 02:12:23;;;;;;;0.60;0.60;;;;;;;0.65;93.98;96384.12;29371;221;64004;-59
2022/01/10 02:12:54;;;;;;;0.60;0.60;;;;;;;0.67;94.10;96381.22;29373;229;63013;-59
2022/01/10 02:13:26;;;;;;;0.60;0.60;;;;;;;0.68;94.12;96382.03;29373;302;63004;-59
2022/01/10 02:13:57;;;;;;;0.60;0.60;;;;;;;0.66;93.81;96379.59;29373;203;63008;-59
2022/01/10 02:14:29;;;;;;;0.60;0.60;;;;;;;0.65;94.07;96384.12;29373;217;63005;-60
2022/01/10 02:15:00;;;;;;;0.60;0.60;;;;;;;0.66;93.93;96380.41;29373;315;63009;-60
2022/01/10 02:16:55;;;;;;;0.60;0.60;;;;;;;0.65;93.82;96384.12;29373;211;63009;-60
2022/01/10 02:17:33;;;;;;;0.60;0.60;;;;;;;0.63;93.71;96378.22;29371;222;64005;-60
2022/01/10 02:18:05;;;;;;;0.60;0.60;;;;;;;0.62;93.79;96387.28;29395;199;63009;-59
2022/01/10 02:18:37;;;;;;;0.60;0.60;;;;;;;0.63;94.17;96390.75;29395;217;63004;-60
2022/01/10 02:19:09;;;;;;;0.60;0.60;;;;;;;0.62;93.83;96389.13;29373;204;63009;-60
2022/01/10 02:19:40;;;;;;;0.60;0.60;;;;;;;0.62;94.04;96395.28;29373;202;63004;-60
2022/01/10 02:20:12;;;;;;;0.60;0.60;;;;;;;0.62;93.92;96389.94;29373;197;63004;-59
2022/01/10 02:20:43;;;;;;;0.60;0.60;;;;;;;0.62;93.86;96392.62;29373;216;63004;-60
2022/01/10 02:21:17;;;;;;;0.60;0.60;;;;;;;0.62;94.03;96387.28;29373;290;63008;-60
2022/01/10 02:21:49;;;;;;;2.25;2.22;;;;;;;0.61;94.24;96388.31;29373;205;63005;-60
2022/01/10 02:22:20;;;;;;;0.60;0.60;;;;;;;0.62;94.03;96387.28;29373;319;63009;-59
2022/01/10 02:22:51;;;;;;;0.60;0.60;;;;;;;0.64;94.03;96385.19;29371;290;64005;-60
2022/01/10 02:23:23;;;;;;;0.50;0.50;;;;;;;0.63;94.01;96386.22;29373;205;63009;-60
2022/01/10 02:23:54;;;;;;;0.52;0.52;;;;;;;0.62;94.32;96389.13;29373;218;63005;-60
2022/01/10 02:24:26;;;;;;;0.70;0.70;;;;;;;0.62;94.22;96386.47;29373;222;63009;-61
2022/01/10 02:24:57;;;;;;;0.60;0.60;;;;;;;0.61;94.30;96387.53;29373;240;63005;-60
2022/01/10 02:25:28;;;;;;;0.50;0.50;;;;;;;0.60;94.05;96385.91;29373;209;63009;-60
2022/01/10 02:26:00;;;;;;;0.50;0.50;;;;;;;0.61;94.40;96396.34;29373;217;63004;-59
2022/01/10 02:26:33;;;;;;;0.60;0.60;;;;;;;0.62;94.33;96386.47;29373;199;63009;-59
2022/01/10 02:27:05;;;;;;;0.60;0.60;;;;;;;0.63;94.04;96388.91;29373;198;63004;-59
2022/01/10 02:27:37;;;;;;;0.60;0.60;;;;;;;0.64;94.11;96390.53;29371;210;64009;-56
2022/01/10 02:28:08;;;;;;;0.60;0.60;;;;;;;0.65;94.42;96400.16;29373;338;63016;-59
2022/01/10 02:28:41;;;;;;;0.50;0.50;;;;;;;0.65;94.04;96394.81;29373;241;63008;-60
2022/01/10 02:29:12;;;;;;;0.60;0.60;;;;;;;0.65;94.31;96394.81;29373;203;63005;-60
2022/01/10 02:29:43;;;;;;;0.60;0.60;;;;;;;0.65;94.01;96389.47;29373;197;63009;-59
2022/01/10 02:30:14;;;;;;;0.60;0.60;;;;;;;0.67;94.14;96391.91;29373;247;63005;-59
2022/01/10 02:30:55;;;;;;;0.55;0.55;;;;;;;0.69;94.29;96400.47;29371;289;64009;-60
2022/01/10 02:31:26;;;;;;;;;;;;;;;0.69;94.01;96394.31;29974;982;28000;-61
2022/01/10 02:31:57;;;;;;;0.60;0.60;;;;;;;0.70;94.18;96393.25;29422;215;63005;-59
2022/01/10 02:32:28;;;;;;;0.60;0.60;;;;;;;0.68;94.32;96396.19;29395;263;63017;-58
2022/01/10 02:33:01;;;;;;;0.60;0.60;;;;;;;0.68;93.99;96396.19;29373;243;63005;-57
2022/01/10 02:33:33;;;;;;;0.60;0.60;;;;;;;0.69;94.09;96400.47;29373;280;63009;-60
2022/01/10 02:34:05;;;;;;;0.60;0.60;;;;;;;0.69;94.06;96394.31;29371;197;64004;-60
2022/01/10 02:34:36;;;;;;;0.60;0.60;;;;;;;0.68;94.23;96398.84;29373;241;63009;-60
2022/01/10 02:35:29;;;;;;;1.08;1.08;;;;;;;0.70;94.14;96401.25;29373;206;63004;-59
2022/01/10 02:36:58;;;;;;;0.70;0.70;;;;;;;0.71;94.18;96402.87;29373;283;63005;-60
2022/01/10 02:37:34;;;;;;;0.60;0.60;;;;;;;0.70;94.36;96402.06;29373;279;63009;-59
2022/01/10 02:38:05;;;;;;;0.60;0.60;;;;;;;0.70;94.47;96406.59;29371;206;64005;-60
2022/01/10 02:38:37;;;;;;;0.60;0.60;;;;;;;0.67;94.25;96410.59;29373;253;63009;-59
2022/01/10 02:39:10;;;;;;;0.60;0.60;;;;;;;0.68;94.20;96406.06;29373;260;63005;-59
2022/01/10 02:39:41;;;;;;;0.60;0.60;;;;;;;0.69;93.98;96405.81;29373;253;63009;-59
2022/01/10 02:40:14;;;;;;;0.60;0.60;;;;;;;0.70;93.86;96414.59;29373;227;63005;-60
2022/01/10 02:40:47;;;;;;;0.60;0.60;;;;;;;0.69;94.18;96410.34;29373;202;63009;-59
2022/01/10 02:41:30;;;;;;;0.60;0.60;;;;;;;0.68;93.90;96411.41;29371;213;64004;-59
2022/01/10 02:42:02;;;;;;;0.60;0.60;;;;;;;0.67;94.16;96418.59;29373;249;63009;-59
2022/01/10 02:42:34;;;;;;;0.60;0.60;;;;;;;0.67;93.82;96407.91;29373;240;63004;-59
2022/01/10 02:43:09;;;;;;;0.60;0.60;;;;;;;0.67;93.92;96413.25;29373;205;63009;-56
2022/01/10 02:43:40;;;;;;;0.60;0.60;;;;;;;0.69;93.92;96415.69;29373;204;63004;-57
2022/01/10 02:44:15;;;;;;;0.60;0.60;;;;;;;0.69;94.18;96415.69;29373;209;63008;-57
2022/01/10 02:44:46;;;;;;;0.60;0.60;;;;;;;0.70;94.08;96411.94;29373;238;63005;-57
2022/01/10 02:45:19;;;;;;;0.60;0.60;;;;;;;0.70;94.25;96419.94;29373;333;63009;-57
2022/01/10 02:45:50;;;;;;;0.60;0.60;;;;;;;0.72;93.90;96417.84;29373;216;63005;-57
2022/01/10 02:46:21;;;;;;;0.60;0.60;;;;;;;0.71;94.03;96413.56;29371;352;64009;-56
2022/01/10 02:46:53;;;;;;;0.60;0.60;;;;;;;0.72;94.02;96415.19;29373;346;63005;-56
2022/01/10 02:47:27;;;;;;;0.65;0.65;;;;;;;0.72;94.36;96412.50;29373;352;63009;-57
2022/01/10 02:47:58;;;;;;;0.60;0.60;;;;;;;0.72;94.32;96415.19;29371;209;64005;-59
2022/01/10 02:48:29;;;;;;;0.60;0.60;;;;;;;0.71;94.31;96424.25;29373;224;63009;-58
2022/01/10 02:49:14;;;;;;;0.50;0.50;;;;;;;0.72;94.03;96420.53;29373;209;63004;-60
2022/01/10 02:49:45;;;;;;;0.60;0.60;;;;;;;0.73;94.29;96424.81;29373;220;63009;-60
2022/01/10 02:50:19;;;;;;;0.52;0.52;;;;;;;0.71;93.94;96425.03;29373;202;63008;-57